createdAt,value
2023-11-17T00:00:10.180Z,1.10
2023-11-17T00:02:37.397Z,1.10
2023-11-17T00:05:04.872Z,1.10
2023-11-17T00:07:31.829Z,1.00
2023-11-17T00:09:58.710Z,0.90
2023-11-17T00:12:25.541Z,1.00
2023-11-17T00:14:52.603Z,0.90
2023-11-17T00:17:19.357Z,0.90
2023-11-17T00:19:47.099Z,0.90
2023-11-17T00:22:14.934Z,0.90
2023-11-17T00:24:42.161Z,1.00
2023-11-17T00:27:11.120Z,1.00
2023-11-17T00:29:38.637Z,0.90
2023-11-17T00:32:06.538Z,1.00
2023-11-17T00:34:33.665Z,1.10
2023-11-17T00:37:06.416Z,1.10
2023-11-17T00:39:33.694Z,1.00
2023-11-17T00:42:00.500Z,0.90
2023-11-17T00:44:27.263Z,0.90
2023-11-17T00:46:55.590Z,0.90
2023-11-17T00:49:22.493Z,0.90
2023-11-17T00:51:50.642Z,0.90
2023-11-17T00:54:17.547Z,0.90
2023-11-17T00:56:44.341Z,0.90
2023-11-17T00:59:13.157Z,0.90
2023-11-17T01:01:41.292Z,0.80
2023-11-17T01:04:08.207Z,0.80
2023-11-17T01:06:35.102Z,0.70
2023-11-17T01:09:01.946Z,0.70
2023-11-17T01:11:28.717Z,0.70
2023-11-17T01:13:55.508Z,0.70
2023-11-17T01:16:22.760Z,0.70
2023-11-17T01:18:51.427Z,0.80
2023-11-17T01:21:18.690Z,0.90
2023-11-17T01:23:45.721Z,1.00
2023-11-17T01:26:12.597Z,1.10
2023-11-17T01:28:39.443Z,1.30
2023-11-17T01:31:06.271Z,1.40
2023-11-17T01:33:33.064Z,1.50
2023-11-17T01:36:00.069Z,1.50
2023-11-17T01:38:27.341Z,1.50
2023-11-17T01:40:57.889Z,1.40
2023-11-17T01:43:26.155Z,1.40
2023-11-17T01:45:56.253Z,1.40
2023-11-17T01:48:25.027Z,1.50
2023-11-17T01:50:53.708Z,1.60
2023-11-17T01:53:20.663Z,1.70
2023-11-17T01:55:48.638Z,1.70
2023-11-17T01:58:16.541Z,1.70
2023-11-17T02:00:43.538Z,1.70
2023-11-17T02:03:10.617Z,1.70
2023-11-17T02:05:37.531Z,1.80
2023-11-17T02:08:33.762Z,1.80
2023-11-17T02:11:19.959Z,1.80
2023-11-17T02:13:56.425Z,1.80
2023-11-17T02:16:25.941Z,1.80
2023-11-17T02:18:56.615Z,1.80
2023-11-17T02:21:32.298Z,1.90
2023-11-17T02:24:01.055Z,2.00
2023-11-17T02:27:01.024Z,2.00
2023-11-17T02:29:38.318Z,2.10
2023-11-17T02:32:06.464Z,2.00
2023-11-17T02:34:33.324Z,2.10
2023-11-17T02:37:06.615Z,2.10
2023-11-17T02:39:46.880Z,2.20
2023-11-17T02:42:14.654Z,2.20
2023-11-17T02:44:41.598Z,2.20
2023-11-17T02:47:20.581Z,2.30
2023-11-17T02:49:53.870Z,2.40
2023-11-17T02:52:27.578Z,2.50
2023-11-17T02:54:56.700Z,2.60
2023-11-17T02:57:26.127Z,2.70
2023-11-17T02:59:54.686Z,2.70
2023-11-17T03:02:22.594Z,2.80
2023-11-17T03:04:53.732Z,2.90
2023-11-17T03:07:21.400Z,2.90
2023-11-17T03:09:52.627Z,2.90
2023-11-17T03:12:20.468Z,3.00
2023-11-17T03:14:47.224Z,3.10
2023-11-17T03:17:14.167Z,3.10
2023-11-17T03:19:41.744Z,3.10
2023-11-17T03:22:09.102Z,3.20
2023-11-17T03:24:36.194Z,3.20
2023-11-17T03:27:04.141Z,3.20
2023-11-17T03:29:34.609Z,3.30
2023-11-17T03:32:02.055Z,3.30
2023-11-17T03:34:31.428Z,3.30
2023-11-17T03:37:03.036Z,3.40
2023-11-17T03:39:42.587Z,3.30
2023-11-17T03:42:16.900Z,3.30
2023-11-17T03:44:43.793Z,3.30
2023-11-17T03:47:11.034Z,3.30
2023-11-17T03:49:38.060Z,3.30
2023-11-17T03:52:05.696Z,3.30
2023-11-17T03:54:33.782Z,3.30
2023-11-17T03:57:04.451Z,3.40
2023-11-17T03:59:31.589Z,3.40
2023-11-17T04:01:59.468Z,3.40
2023-11-17T04:04:27.864Z,3.50
2023-11-17T04:06:58.428Z,3.40
2023-11-17T04:09:26.593Z,3.50
2023-11-17T04:11:54.382Z,3.50
2023-11-17T04:14:23.161Z,3.50
2023-11-17T04:16:50.928Z,3.60
2023-11-17T04:19:22.139Z,3.60
2023-11-17T04:21:50.544Z,3.60
2023-11-17T04:24:18.381Z,3.60
2023-11-17T04:26:45.751Z,3.60
2023-11-17T04:29:12.963Z,3.60
2023-11-17T04:31:39.728Z,3.60
2023-11-17T04:34:06.976Z,3.60
2023-11-17T04:36:34.085Z,3.60
2023-11-17T04:39:02.448Z,3.60
2023-11-17T04:41:32.869Z,3.70
2023-11-17T04:44:00.298Z,3.70
2023-11-17T04:46:27.218Z,3.70
2023-11-17T04:48:54.172Z,3.70
2023-11-17T04:51:20.965Z,3.70
2023-11-17T04:53:47.869Z,3.80
2023-11-17T04:56:14.771Z,3.70
2023-11-17T04:58:41.651Z,3.80
2023-11-17T05:01:08.717Z,3.80
2023-11-17T05:03:36.675Z,3.80
2023-11-17T05:06:07.275Z,3.70
2023-11-17T05:08:36.319Z,3.60
2023-11-17T05:11:05.290Z,3.60
2023-11-17T05:13:33.358Z,3.60
2023-11-17T05:16:04.536Z,3.50
2023-11-17T05:18:31.599Z,3.30
2023-11-17T05:20:58.430Z,3.30
2023-11-17T05:23:25.177Z,3.30
2023-11-17T05:25:52.026Z,3.30
2023-11-17T05:28:19.389Z,3.30
2023-11-17T05:30:47.119Z,3.20
2023-11-17T05:33:19.377Z,3.40
2023-11-17T05:35:46.709Z,3.40
2023-11-17T05:38:13.458Z,3.50
2023-11-17T05:40:41.243Z,3.60
2023-11-17T05:44:17.348Z,3.60
2023-11-17T05:46:44.886Z,3.60
2023-11-17T05:49:12.814Z,3.70
2023-11-17T05:51:39.608Z,3.70
2023-11-17T05:54:06.447Z,3.70
2023-11-17T05:56:33.425Z,3.80
2023-11-17T05:59:00.332Z,3.80
2023-11-17T06:01:27.111Z,3.80
2023-11-17T06:03:53.941Z,3.90
2023-11-17T06:06:20.747Z,3.90
2023-11-17T06:08:47.554Z,3.90
2023-11-17T06:11:14.320Z,3.90
2023-11-17T06:13:42.585Z,3.90
2023-11-17T06:16:15.593Z,3.90
2023-11-17T06:18:43.561Z,3.80
2023-11-17T06:21:11.154Z,3.80
2023-11-17T06:23:37.953Z,3.80
2023-11-17T06:26:05.578Z,3.80
2023-11-17T06:28:32.399Z,3.90
2023-11-17T06:30:59.189Z,3.90
2023-11-17T06:33:26.732Z,4.00
2023-11-17T06:35:53.514Z,4.00
2023-11-17T06:38:20.905Z,4.00
2023-11-17T06:40:47.628Z,4.00
2023-11-17T06:43:15.187Z,4.00
2023-11-17T06:45:42.830Z,4.00
2023-11-17T06:48:09.614Z,4.00
2023-11-17T06:50:38.165Z,4.00
2023-11-17T06:53:05.088Z,4.00
2023-11-17T06:55:31.853Z,4.10
2023-11-17T06:57:58.724Z,4.10
2023-11-17T07:00:25.497Z,4.10
2023-11-17T07:02:52.328Z,4.20
2023-11-17T07:05:19.770Z,4.20
2023-11-17T07:07:47.217Z,4.20
2023-11-17T07:10:16.087Z,4.30
2023-11-17T07:12:43.451Z,4.30
2023-11-17T07:15:12.435Z,4.30
2023-11-17T07:17:39.677Z,4.30
2023-11-17T07:20:11.044Z,4.30
2023-11-17T07:22:39.197Z,4.30
2023-11-17T07:25:06.922Z,4.30
2023-11-17T07:27:33.724Z,4.30
2023-11-17T07:30:01.019Z,4.30
2023-11-17T07:32:27.957Z,4.30
2023-11-17T07:34:56.820Z,4.40
2023-11-17T07:37:25.432Z,4.40
2023-11-17T07:39:52.224Z,4.40
2023-11-17T07:42:19.029Z,4.40
2023-11-17T07:44:45.782Z,4.40
2023-11-17T07:47:14.086Z,4.40
2023-11-17T07:49:41.044Z,4.50
2023-11-17T07:52:08.915Z,4.50
2023-11-17T07:54:36.850Z,4.60
2023-11-17T07:57:04.012Z,4.60
2023-11-17T07:59:31.704Z,4.70
2023-11-17T08:01:58.577Z,4.70
2023-11-17T08:04:25.995Z,4.80
2023-11-17T08:06:54.175Z,4.80
2023-11-17T08:09:20.970Z,4.90
2023-11-17T08:11:49.418Z,4.90
2023-11-17T08:14:16.626Z,4.90
2023-11-17T08:16:43.447Z,5.00
2023-11-17T08:19:18.581Z,5.00
2023-11-17T08:21:52.906Z,5.10
2023-11-17T08:24:21.885Z,5.20
2023-11-17T08:26:51.577Z,5.10
2023-11-17T08:29:22.518Z,5.10
2023-11-17T08:31:50.588Z,5.20
2023-11-17T08:34:17.815Z,5.20
2023-11-17T08:36:44.677Z,5.20
2023-11-17T08:39:22.649Z,5.30
2023-11-17T08:41:49.456Z,5.30
2023-11-17T08:44:16.940Z,5.20
2023-11-17T08:46:43.909Z,5.30
2023-11-17T08:49:10.774Z,5.40
2023-11-17T08:51:38.648Z,5.40
2023-11-17T08:54:05.633Z,5.40
2023-11-17T08:56:33.319Z,5.30
2023-11-17T08:59:00.063Z,5.50
2023-11-17T09:01:26.896Z,5.50
2023-11-17T09:03:53.718Z,5.50
2023-11-17T09:06:20.468Z,5.50
2023-11-17T09:08:47.312Z,5.40
2023-11-17T09:11:14.032Z,5.50
2023-11-17T09:13:41.589Z,5.50
2023-11-17T09:16:09.207Z,5.50
2023-11-17T09:18:36.977Z,5.80
2023-11-17T09:21:07.188Z,5.90
2023-11-17T09:23:37.259Z,5.90
2023-11-17T09:26:06.863Z,5.90
2023-11-17T09:28:33.630Z,6.00
2023-11-17T09:31:01.372Z,6.00
2023-11-17T09:33:29.253Z,6.00
2023-11-17T09:36:01.450Z,6.00
2023-11-17T09:38:36.690Z,6.10
2023-11-17T09:41:07.580Z,6.10
2023-11-17T09:43:39.837Z,6.10
2023-11-17T09:46:11.660Z,6.20
2023-11-17T09:48:40.293Z,6.20
2023-11-17T09:51:08.094Z,6.20
2023-11-17T09:53:36.885Z,6.20
2023-11-17T09:56:05.445Z,6.10
2023-11-17T09:58:33.795Z,6.20
2023-11-17T10:01:01.911Z,6.20
2023-11-17T10:03:29.703Z,6.20
2023-11-17T10:05:59.092Z,6.30
2023-11-17T10:08:28.475Z,6.20
2023-11-17T10:10:57.016Z,6.20
2023-11-17T10:13:26.795Z,6.20
2023-11-17T10:15:59.308Z,6.10
2023-11-17T10:18:27.922Z,6.20
2023-11-17T10:20:55.813Z,6.20
2023-11-17T10:23:22.735Z,6.10
2023-11-17T10:25:55.534Z,6.10
2023-11-17T10:28:27.724Z,6.20
2023-11-17T10:31:01.007Z,6.20
2023-11-17T10:33:31.960Z,6.20
2023-11-17T10:36:11.490Z,6.30
2023-11-17T10:38:40.462Z,6.30
2023-11-17T10:41:34.265Z,6.20
2023-11-17T10:44:03.069Z,6.20
2023-11-17T10:46:36.878Z,6.10
2023-11-17T10:49:08.477Z,6.00
2023-11-17T10:51:52.210Z,6.10
2023-11-17T10:54:19.921Z,6.10
2023-11-17T10:56:48.931Z,6.10
2023-11-17T10:59:21.970Z,6.20
2023-11-17T11:01:51.238Z,6.30
2023-11-17T11:04:28.568Z,6.40
2023-11-17T11:06:57.025Z,6.50
2023-11-17T11:09:39.366Z,6.60
2023-11-17T11:12:13.676Z,6.70
2023-11-17T11:14:41.622Z,6.80
2023-11-17T11:17:11.075Z,6.90
2023-11-17T11:19:52.739Z,7.00
2023-11-17T11:22:29.341Z,7.20
2023-11-17T11:24:56.902Z,7.20
2023-11-17T11:27:25.123Z,7.20
2023-11-17T11:29:53.171Z,7.20
2023-11-17T11:32:20.710Z,7.20
2023-11-17T11:34:47.695Z,7.30
2023-11-17T11:37:14.662Z,7.20
2023-11-17T11:39:42.466Z,7.20
2023-11-17T11:42:09.301Z,7.20
2023-11-17T11:44:36.474Z,7.20
2023-11-17T11:47:05.937Z,7.40
2023-11-17T11:49:35.090Z,7.40
2023-11-17T11:52:17.419Z,7.40
2023-11-17T11:54:46.595Z,7.40
2023-11-17T11:57:28.810Z,7.30
2023-11-17T12:00:01.724Z,7.50
2023-11-17T12:02:31.338Z,7.50
2023-11-17T12:05:04.389Z,7.40
2023-11-17T12:07:34.929Z,7.30
2023-11-17T12:10:02.480Z,7.40
2023-11-17T12:12:29.579Z,7.50
2023-11-17T12:14:58.810Z,7.50
2023-11-17T12:17:32.405Z,7.50
2023-11-17T12:20:25.743Z,7.50
2023-11-17T12:23:00.365Z,7.50
2023-11-17T12:25:31.500Z,7.60
2023-11-17T12:27:59.820Z,7.40
2023-11-17T12:30:27.837Z,7.20
2023-11-17T12:32:57.316Z,7.50
2023-11-17T12:35:30.927Z,7.70
2023-11-17T12:37:58.174Z,7.70
2023-11-17T12:40:29.241Z,7.90
2023-11-17T12:42:56.332Z,8.00
2023-11-17T12:45:23.181Z,8.40
2023-11-17T12:47:50.064Z,8.50
2023-11-17T12:50:16.874Z,8.50
2023-11-17T12:53:07.849Z,8.80
2023-11-17T12:55:49.625Z,8.50
2023-11-17T12:58:16.719Z,8.10
2023-11-17T13:00:47.310Z,7.90
2023-11-17T13:03:14.837Z,7.90
2023-11-17T13:05:42.271Z,8.30
2023-11-17T13:08:09.815Z,8.40
2023-11-17T13:10:36.658Z,8.80
2023-11-17T13:13:07.588Z,9.30
2023-11-17T13:15:34.785Z,9.60
2023-11-17T13:18:01.810Z,9.70
2023-11-17T13:20:31.517Z,9.30
2023-11-17T13:22:58.274Z,9.00
2023-11-17T13:25:27.271Z,9.10
2023-11-17T13:27:54.329Z,9.20
2023-11-17T13:30:22.538Z,9.40
2023-11-17T13:32:58.297Z,9.40
2023-11-17T13:35:29.957Z,9.40
2023-11-17T13:38:01.906Z,9.50
2023-11-17T13:40:42.888Z,9.40
2023-11-17T13:43:11.833Z,9.10
2023-11-17T13:45:40.064Z,9.20
2023-11-17T13:48:09.451Z,9.10
2023-11-17T13:50:36.870Z,9.00
2023-11-17T13:53:07.143Z,9.00
2023-11-17T13:55:34.836Z,8.90
2023-11-17T13:58:03.478Z,8.80
2023-11-17T14:00:30.714Z,8.80
2023-11-17T14:02:58.507Z,8.90
2023-11-17T14:05:25.427Z,8.80
2023-11-17T14:07:53.152Z,8.80
2023-11-17T14:10:20.192Z,8.70
2023-11-17T14:12:47.800Z,8.70
2023-11-17T14:15:15.303Z,8.70
2023-11-17T14:17:44.783Z,8.70
2023-11-17T14:20:15.046Z,8.80
2023-11-17T14:22:42.166Z,8.60
2023-11-17T14:25:11.660Z,8.40
2023-11-17T14:27:41.996Z,8.30
2023-11-17T14:30:09.868Z,8.20
2023-11-17T14:32:38.533Z,8.20
2023-11-17T14:35:06.888Z,8.30
2023-11-17T14:37:35.126Z,8.20
2023-11-17T14:40:07.724Z,8.10
2023-11-17T14:42:34.806Z,8.10
2023-11-17T14:45:01.610Z,8.00
2023-11-17T14:47:30.402Z,8.00
2023-11-17T14:49:58.069Z,7.90
2023-11-17T14:52:28.696Z,7.90
2023-11-17T14:54:55.431Z,7.90
2023-11-17T14:57:22.321Z,7.80
2023-11-17T14:59:49.064Z,7.60
2023-11-17T15:02:15.929Z,7.50
2023-11-17T15:04:42.944Z,7.50
2023-11-17T15:07:09.887Z,7.40
2023-11-17T15:09:39.167Z,7.20
2023-11-17T15:12:06.577Z,6.90
2023-11-17T15:14:33.386Z,6.70
2023-11-17T15:17:00.435Z,6.50
2023-11-17T15:19:29.685Z,6.30
2023-11-17T15:21:57.997Z,6.10
2023-11-17T15:24:25.537Z,6.10
2023-11-17T15:26:56.483Z,6.00
2023-11-17T15:29:27.495Z,5.90
2023-11-17T15:31:54.974Z,5.80
2023-11-17T15:34:22.641Z,5.80
2023-11-17T15:36:51.841Z,5.70
2023-11-17T15:39:18.737Z,5.60
2023-11-17T15:41:45.597Z,5.50
2023-11-17T15:44:17.654Z,5.50
2023-11-17T15:46:46.365Z,5.50
2023-11-17T15:49:15.441Z,5.50
2023-11-17T15:51:42.373Z,5.30
2023-11-17T15:54:09.995Z,5.20
2023-11-17T15:56:41.273Z,5.20
2023-11-17T15:59:12.041Z,5.10
2023-11-17T16:01:44.102Z,5.10
2023-11-17T16:04:11.007Z,5.10
2023-11-17T16:06:41.149Z,5.00
2023-11-17T16:09:11.699Z,5.00
2023-11-17T16:11:41.162Z,5.00
2023-11-17T16:14:10.951Z,4.90
2023-11-17T16:16:38.005Z,5.00
2023-11-17T16:19:05.181Z,4.80
2023-11-17T16:21:32.047Z,4.80
2023-11-17T16:24:00.241Z,4.70
2023-11-17T16:26:29.021Z,4.80
2023-11-17T16:28:57.831Z,4.70
2023-11-17T16:31:25.123Z,4.70
2023-11-17T16:33:52.238Z,4.80
2023-11-17T16:36:21.211Z,4.90
2023-11-17T16:38:50.690Z,4.90
2023-11-17T16:41:17.576Z,5.00
2023-11-17T16:43:44.544Z,5.10
2023-11-17T16:46:12.414Z,5.10
2023-11-17T16:48:40.934Z,5.20
2023-11-17T16:51:09.261Z,5.30
2023-11-17T16:53:36.943Z,5.30
2023-11-17T16:56:04.335Z,5.30
2023-11-17T16:58:31.123Z,5.50
2023-11-17T17:00:58.596Z,5.50
2023-11-17T17:03:27.403Z,5.50
2023-11-17T17:05:54.614Z,5.60
2023-11-17T17:08:26.387Z,5.60
2023-11-17T17:10:54.204Z,5.70
2023-11-17T17:13:21.200Z,5.80
2023-11-17T17:15:48.119Z,5.80
2023-11-17T17:18:15.606Z,5.80
2023-11-17T17:20:44.020Z,5.80
2023-11-17T17:23:12.709Z,5.80
2023-11-17T17:25:41.428Z,5.90
2023-11-17T17:28:13.050Z,5.90
2023-11-17T17:30:41.779Z,5.80
2023-11-17T17:33:13.606Z,5.80
2023-11-17T17:35:42.441Z,5.90
2023-11-17T17:38:11.871Z,5.90
2023-11-17T17:40:39.438Z,5.90
2023-11-17T17:43:07.714Z,5.80
2023-11-17T17:45:35.018Z,5.90
2023-11-17T17:48:02.041Z,5.90
2023-11-17T17:50:30.189Z,5.90
2023-11-17T17:52:58.967Z,5.90
2023-11-17T17:55:28.365Z,5.90
2023-11-17T17:57:57.089Z,5.80
2023-11-17T18:00:25.473Z,5.80
2023-11-17T18:02:58.963Z,5.80
2023-11-17T18:05:27.471Z,5.90
2023-11-17T18:07:54.304Z,5.80
2023-11-17T18:10:21.560Z,5.80
2023-11-17T18:12:51.036Z,5.80
2023-11-17T18:15:22.285Z,5.80
2023-11-17T18:17:50.875Z,5.70
2023-11-17T18:20:19.675Z,5.80
2023-11-17T18:22:50.928Z,5.80
2023-11-17T18:25:19.656Z,5.70
2023-11-17T18:27:48.423Z,5.70
2023-11-17T18:30:17.442Z,5.60
2023-11-17T18:32:45.528Z,5.50
2023-11-17T18:35:15.826Z,5.50
2023-11-17T18:37:46.428Z,5.50
2023-11-17T18:40:22.561Z,5.50
2023-11-17T18:42:50.346Z,5.50
2023-11-17T18:45:19.994Z,5.50
2023-11-17T18:47:47.294Z,5.40
2023-11-17T18:50:14.443Z,5.30
2023-11-17T18:52:43.258Z,5.10
2023-11-17T18:55:12.631Z,5.00
2023-11-17T18:57:39.472Z,4.90
2023-11-17T19:00:11.950Z,4.80
2023-11-17T19:02:40.765Z,4.70
2023-11-17T19:05:10.544Z,4.60
2023-11-17T19:07:38.478Z,4.60
2023-11-17T19:10:09.660Z,4.60
2023-11-17T19:12:37.096Z,4.40
2023-11-17T19:15:07.813Z,4.30
2023-11-17T19:17:35.066Z,4.40
2023-11-17T19:20:05.219Z,4.40
2023-11-17T19:22:32.476Z,4.40
2023-11-17T19:25:01.601Z,4.30
2023-11-17T19:27:29.954Z,4.30
2023-11-17T19:29:58.295Z,4.30
2023-11-17T19:32:25.175Z,4.30
2023-11-17T19:34:52.686Z,4.40
2023-11-17T19:37:20.979Z,4.40
2023-11-17T19:39:47.983Z,4.50
2023-11-17T19:42:15.675Z,4.60
2023-11-17T19:44:50.320Z,4.60
2023-11-17T19:47:19.123Z,4.50
2023-11-17T19:49:47.526Z,4.50
2023-11-17T19:52:14.631Z,4.50
2023-11-17T19:54:43.244Z,4.50
2023-11-17T19:57:11.461Z,4.50
2023-11-17T19:59:39.828Z,4.50
2023-11-17T20:02:07.253Z,4.30
2023-11-17T20:04:34.660Z,4.30
2023-11-17T20:07:01.737Z,4.20
2023-11-17T20:09:40.621Z,4.20
2023-11-17T20:12:08.173Z,4.30
2023-11-17T20:14:35.061Z,4.30
2023-11-17T20:17:02.226Z,4.20
2023-11-17T20:19:29.015Z,4.20
2023-11-17T20:21:56.327Z,4.20
2023-11-17T20:24:24.084Z,4.10
2023-11-17T20:26:51.229Z,4.00
2023-11-17T20:29:18.944Z,4.00
2023-11-17T20:31:49.224Z,4.00
2023-11-17T20:34:17.770Z,4.00
2023-11-17T20:36:46.337Z,4.00
2023-11-17T20:39:15.590Z,4.10
2023-11-17T20:41:42.440Z,4.20
2023-11-17T20:44:09.198Z,4.30
2023-11-17T20:46:37.701Z,4.20
2023-11-17T20:49:06.421Z,4.30
2023-11-17T20:51:34.708Z,4.40
2023-11-17T20:54:05.963Z,4.40
2023-11-17T20:56:35.354Z,4.40
2023-11-17T20:59:02.522Z,4.30
2023-11-17T21:01:30.048Z,4.30
2023-11-17T21:03:57.468Z,4.20
2023-11-17T21:06:25.224Z,4.10
2023-11-17T21:08:52.196Z,4.10
2023-11-17T21:11:21.773Z,4.10
2023-11-17T21:13:49.022Z,4.00
2023-11-17T21:16:18.110Z,4.10
2023-11-17T21:18:46.051Z,4.10
2023-11-17T21:21:13.816Z,4.20
2023-11-17T21:23:43.848Z,4.30
2023-11-17T21:26:14.989Z,4.50
2023-11-17T21:28:43.761Z,4.60
2023-11-17T21:31:11.063Z,4.70
2023-11-17T21:33:37.910Z,4.80
2023-11-17T21:36:05.347Z,4.80
2023-11-17T21:38:32.166Z,4.90
2023-11-17T21:40:59.483Z,4.90
2023-11-17T21:43:26.758Z,4.90
2023-11-17T21:45:58.770Z,5.00
2023-11-17T21:48:28.717Z,4.90
2023-11-17T21:50:56.533Z,4.80
2023-11-17T21:53:24.748Z,4.60
2023-11-17T21:55:51.625Z,4.50
2023-11-17T21:58:18.517Z,4.30
2023-11-17T22:00:46.063Z,4.20
2023-11-17T22:03:13.614Z,4.10
2023-11-17T22:05:41.227Z,3.90
2023-11-17T22:08:08.995Z,3.80
2023-11-17T22:10:36.183Z,3.70
2023-11-17T22:13:02.986Z,3.40
2023-11-17T22:15:31.588Z,3.30
2023-11-17T22:17:58.480Z,3.20
2023-11-17T22:20:28.625Z,3.10
2023-11-17T22:22:56.156Z,3.00
2023-11-17T22:25:24.053Z,2.90
2023-11-17T22:27:52.166Z,2.70
2023-11-17T22:30:24.525Z,2.70
2023-11-17T22:32:54.047Z,2.60
2023-11-17T22:35:21.088Z,2.60
2023-11-17T22:37:50.518Z,2.60
2023-11-17T22:40:17.513Z,2.70
2023-11-17T22:42:45.782Z,2.70
2023-11-17T22:45:16.772Z,2.70
2023-11-17T22:47:48.393Z,2.60
2023-11-17T22:50:18.235Z,2.60
2023-11-17T22:52:46.020Z,2.50
2023-11-17T22:55:16.298Z,2.30
2023-11-17T22:57:44.288Z,2.20
2023-11-17T23:00:35.319Z,2.10
2023-11-17T23:03:08.715Z,2.00
2023-11-17T23:05:44.051Z,1.90
2023-11-17T23:08:13.326Z,2.00
2023-11-17T23:10:41.917Z,2.20
2023-11-17T23:13:08.873Z,2.40
2023-11-17T23:15:35.952Z,2.50
2023-11-17T23:18:03.072Z,2.50
2023-11-17T23:20:30.197Z,2.60
2023-11-17T23:22:57.919Z,2.60
2023-11-17T23:25:26.276Z,2.60
2023-11-17T23:27:53.672Z,2.60
2023-11-17T23:30:20.683Z,2.70
2023-11-17T23:32:48.366Z,2.80
2023-11-17T23:35:15.283Z,2.90
2023-11-17T23:37:42.088Z,2.90
2023-11-17T23:40:10.071Z,3.00
2023-11-17T23:42:36.781Z,3.10
2023-11-17T23:45:03.945Z,3.30
2023-11-17T23:47:30.847Z,3.50
2023-11-17T23:49:58.654Z,3.80
2023-11-17T23:52:27.865Z,3.90
2023-11-17T23:54:55.589Z,4.00
2023-11-17T23:57:22.373Z,4.10
2023-11-17T23:59:49.128Z,4.10
